createdAt,value
2022-07-25T00:02:43.059Z,21.6
2022-07-25T00:08:34.606Z,21.5
2022-07-25T00:14:12.337Z,21.4
2022-07-25T00:19:51.566Z,21.4
2022-07-25T00:25:27.275Z,21.4
2022-07-25T00:31:10.143Z,21.3
2022-07-25T00:36:47.050Z,21.3
2022-07-25T00:42:26.791Z,21.2
2022-07-25T00:53:17.958Z,21
2022-07-25T00:58:56.055Z,20.9
2022-07-25T01:04:35.583Z,20.8
2022-07-25T01:10:15.716Z,20.8
2022-07-25T01:15:37.475Z,20.7
2022-07-25T01:21:01.164Z,20.6
2022-07-25T01:26:22.499Z,20.6
2022-07-25T01:32:11.733Z,20.4
2022-07-25T01:37:45.361Z,20.4
2022-07-25T01:43:25.495Z,20.4
2022-07-25T01:49:02.780Z,20.3
2022-07-25T01:54:48.577Z,20.3
2022-07-25T02:00:44.167Z,20.2
2022-07-25T02:06:23.607Z,20.1
2022-07-25T02:12:01.443Z,20.1
2022-07-25T02:17:41.760Z,19.9
2022-07-25T02:23:18.568Z,19.9
2022-07-25T02:28:55.493Z,19.7
2022-07-25T02:34:32.807Z,19.6
2022-07-25T02:40:17.117Z,19.4
2022-07-25T02:45:54.993Z,19.3
2022-07-25T02:51:33.357Z,19.3
2022-07-25T02:57:45.165Z,19.1
2022-07-25T03:03:23.141Z,19.1
2022-07-25T03:08:46.757Z,19.1
2022-07-25T03:14:26.313Z,19.1
2022-07-25T03:20:03.507Z,19.1
2022-07-25T03:25:55.414Z,19.1
2022-07-25T03:31:31.706Z,19.1
2022-07-25T03:37:08.049Z,19.1
2022-07-25T03:42:52.103Z,19.1
2022-07-25T03:48:32.137Z,19.1
2022-07-25T03:53:33.898Z,19.2
2022-07-25T03:59:18.548Z,19.3
2022-07-25T04:04:57.306Z,19.4
2022-07-25T04:10:36.407Z,19.6
2022-07-25T04:16:16.360Z,19.8
2022-07-25T04:22:10.561Z,20.1
2022-07-25T04:27:51.410Z,20.4
2022-07-25T04:39:02.299Z,21.9
2022-07-25T04:44:40.505Z,22.8
2022-07-25T04:50:02.599Z,23.8
2022-07-25T04:55:45.598Z,25.4
2022-07-25T05:01:24.822Z,27.6
2022-07-25T05:06:50.814Z,29.1
2022-07-25T05:12:16.541Z,30.5
2022-07-25T05:17:54.399Z,32.1
2022-07-25T05:23:40.320Z,33.6
2022-07-25T05:29:02.408Z,34.9
2022-07-25T05:34:25.310Z,36.6
2022-07-25T05:39:50.833Z,38.4
2022-07-25T05:45:27.831Z,40.3
2022-07-25T05:51:05.643Z,42.6
2022-07-25T05:56:45.320Z,44.9
2022-07-25T06:02:28.984Z,47
2022-07-25T06:08:09.184Z,49.3
2022-07-25T06:14:02.203Z,51.6
2022-07-25T06:19:50.881Z,53.9
2022-07-25T06:25:28.956Z,56.1
2022-07-25T06:31:31.285Z,58.3
2022-07-25T06:37:08.736Z,61
2022-07-25T06:42:50.470Z,47.1
2022-07-25T06:48:28.785Z,49
2022-07-25T06:53:52.871Z,54.8
2022-07-25T06:59:34.606Z,48.1
2022-07-25T07:05:18.349Z,49.8
2022-07-25T07:10:56.708Z,53.8
2022-07-25T07:16:39.717Z,48.3
2022-07-25T07:22:20.202Z,57.8
2022-07-25T07:28:31.224Z,50.9
2022-07-25T07:34:48.079Z,51.8
2022-07-25T07:40:34.720Z,53.3
2022-07-25T07:46:12.136Z,53.8
2022-07-25T07:51:23.183Z,54.4
2022-07-25T07:57:01.088Z,55.5
2022-07-25T08:02:37.932Z,57.1
2022-07-25T15:18:01.156Z,56.4
2022-07-25T15:24:07.362Z,55
2022-07-25T15:30:52.375Z,53.4
2022-07-25T15:41:57.922Z,50.5
2022-07-25T15:48:08.001Z,49.1
2022-07-25T15:53:48.615Z,47.8
2022-07-25T15:59:16.043Z,46.6
2022-07-25T16:05:01.568Z,45.3
2022-07-25T16:10:41.974Z,43.8
2022-07-25T16:16:25.625Z,42.5
2022-07-25T16:22:05.495Z,41.4
2022-07-25T16:27:46.516Z,40.4
2022-07-25T16:33:31.572Z,39.5
2022-07-25T16:39:16.482Z,38.6
2022-07-25T16:45:00.568Z,37.9
2022-07-25T16:50:45.224Z,37.1
2022-07-25T16:56:30.437Z,36.4
2022-07-25T17:02:17.929Z,35.7
2022-07-25T17:07:59.600Z,35.1
2022-07-25T17:13:41.572Z,34.4
2022-07-25T17:19:21.971Z,33.7
2022-07-25T17:25:06.451Z,32.9
2022-07-25T17:30:47.264Z,32
2022-07-25T17:36:30.997Z,31.2
2022-07-25T17:42:19.055Z,30.4
2022-07-25T17:47:44.284Z,29.8
2022-07-25T17:53:25.773Z,29.2
2022-07-25T17:59:07.139Z,28.6
2022-07-25T18:04:54.588Z,27.9
2022-07-25T18:10:33.334Z,27.4
2022-07-25T18:16:14.395Z,27
2022-07-25T18:21:54.433Z,26.6
2022-07-25T18:27:38.675Z,26.1
2022-07-25T18:33:22.583Z,25.8
2022-07-25T18:39:02.586Z,25.5
2022-07-25T18:45:19.662Z,25.3
2022-07-25T18:51:06.533Z,25
2022-07-25T18:56:47.381Z,24.8
2022-07-25T19:02:27.980Z,24.6
2022-07-25T19:08:08.366Z,24.4
2022-07-25T19:14:19.630Z,24.1
2022-07-25T19:20:00.392Z,23.9
2022-07-25T19:25:41.526Z,23.8
